Time;durP1;ratioP1;P1;durP2;ratioP2;P2;SDS_P1;SDS_P2;PMS_P1;PMS_P2;Temp;Humidity;BMP_temperature;BMP_pressure;BME280_temperature;BME280_humidity;BME280_pressure;Samples;Min_cycle;Max_cycle;Signal;HPM_P1;HPM_P2
2023/08/02 00:00:40;;;;;;;5.30;4.90;;;14.10;99.60;;;;;;5029117;28;20928;-77
2023/08/02 00:03:08;;;;;;;9.33;5.90;;;14.10;99.50;;;;;;5036202;28;20465;-80
2023/08/02 00:05:34;;;;;;;10.70;4.30;;;14.10;99.50;;;;;;5018397;28;20453;-79
2023/08/02 00:08:01;;;;;;;6.83;4.70;;;14.00;99.50;;;;;;5036451;28;20464;-78
2023/08/02 00:10:28;;;;;;;6.23;5.03;;;14.00;99.60;;;;;;5043116;28;20445;-77
2023/08/02 00:12:55;;;;;;;8.87;5.90;;;14.00;99.70;;;;;;5036748;28;20465;-80
2023/08/02 00:15:25;;;;;;;8.10;5.50;;;14.00;99.70;;;;;;5030665;28;20579;-76
2023/08/02 00:17:52;;;;;;;8.73;6.47;;;13.90;99.70;;;;;;5035694;28;20573;-78
2023/08/02 00:20:19;;;;;;;6.73;4.97;;;13.90;99.90;;;;;;5039482;28;20449;-76
2023/08/02 00:22:46;;;;;;;8.33;5.50;;;14.00;99.90;;;;;;5034941;28;20469;-80
2023/08/02 00:25:13;;;;;;;6.20;5.60;;;13.90;99.80;;;;;;5038531;28;20517;-77
2023/08/02 00:27:40;;;;;;;7.87;5.33;;;13.90;99.90;;;;;;5012806;28;20449;-77
2023/08/02 00:30:08;;;;;;;8.17;5.20;;;13.90;99.90;;;;;;5037274;28;20473;-77
2023/08/02 00:32:43;;;;;;;6.30;5.00;;;13.90;99.90;;;;;;5035825;28;20833;-77
2023/08/02 00:35:10;;;;;;;6.70;5.57;;;13.90;99.90;;;;;;5030234;28;20485;-78
2023/08/02 00:37:37;;;;;;;9.90;5.50;;;13.90;99.90;;;;;;5034917;28;20465;-76
2023/08/02 00:40:05;;;;;;;12.23;5.30;;;14.00;99.90;;;;;;5034636;28;20381;-77
2023/08/02 00:42:34;;;;;;;5.23;4.80;;;13.90;99.50;;;;;;5043681;28;20464;-77
2023/08/02 00:45:03;;;;;;;7.57;5.17;;;13.90;99.40;;;;;;5048746;28;20481;-77
2023/08/02 00:47:34;;;;;;;5.87;5.23;;;13.80;99.50;;;;;;5037166;28;20490;-77
2023/08/02 00:50:03;;;;;;;7.50;4.85;;;13.80;99.60;;;;;;5062400;28;20448;-78
2023/08/02 00:52:31;;;;;;;12.53;5.20;;;13.70;99.40;;;;;;5040798;28;20190;-82
2023/08/02 00:54:59;;;;;;;9.53;5.57;;;13.80;99.30;;;;;;5040859;28;20487;-79
2023/08/02 00:57:26;;;;;;;6.77;4.77;;;13.90;99.40;;;;;;5036466;28;20449;-78
2023/08/02 00:59:53;;;;;;;5.57;4.83;;;13.80;99.10;;;;;;5034714;28;20446;-77
2023/08/02 01:02:20;;;;;;;10.10;5.40;;;13.70;99.00;;;;;;5035551;28;20433;-78
2023/08/02 01:04:48;;;;;;;14.73;6.10;;;13.80;99.00;;;;;;5035101;28;20497;-79
2023/08/02 01:07:21;;;;;;;6.88;5.15;;;13.80;99.10;;;;;;5039086;28;20450;-77
2023/08/02 01:10:23;;;;;;;5.95;4.72;;;13.80;99.40;;;;;;5026680;28;20421;-80
2023/08/02 01:12:53;;;;;;;7.00;4.90;;;13.70;99.10;;;;;;5038193;28;20413;-77
2023/08/02 01:15:21;;;;;;;9.87;5.33;;;13.60;99.20;;;;;;5034291;28;20481;-78
2023/08/02 01:17:51;;;;;;;6.13;5.50;;;13.70;99.20;;;;;;5017139;28;20521;-77
2023/08/02 01:20:18;;;;;;;7.68;5.30;;;13.70;99.20;;;;;;5035004;28;20472;-76
2023/08/02 01:22:45;;;;;;;8.07;5.72;;;13.70;99.10;;;;;;5034760;28;20219;-78
2023/08/02 01:25:12;;;;;;;5.93;5.33;;;13.60;99.30;;;;;;5036755;28;20532;-78
2023/08/02 01:27:57;;;;;;;7.20;5.87;;;13.60;99.50;;;;;;5035672;28;20774;-78
2023/08/02 01:30:29;;;;;;;9.00;6.57;;;13.50;99.40;;;;;;5035439;28;20497;-78
2023/08/02 01:32:57;;;;;;;7.55;5.40;;;13.50;99.60;;;;;;5030263;28;20223;-79
2023/08/02 01:35:25;;;;;;;9.18;5.90;;;13.50;99.70;;;;;;5019297;28;20238;-80
2023/08/02 01:37:54;;;;;;;9.30;5.60;;;13.50;99.60;;;;;;5037733;28;20601;-78
2023/08/02 01:40:21;;;;;;;10.97;5.83;;;13.40;99.70;;;;;;5038816;28;20452;-79
2023/08/02 01:42:48;;;;;;;10.27;5.20;;;13.40;99.70;;;;;;5020419;28;20441;-79
2023/08/02 01:45:15;;;;;;;7.23;5.63;;;13.50;99.60;;;;;;5022917;28;20705;-78
2023/08/02 01:47:42;;;;;;;7.37;5.57;;;13.50;99.50;;;;;;5039557;28;20452;-77
2023/08/02 01:50:09;;;;;;;8.00;5.73;;;13.50;99.90;;;;;;5030011;28;20536;-78
2023/08/02 01:52:36;;;;;;;9.93;6.53;;;13.50;99.40;;;;;;5039021;28;20536;-82
2023/08/02 01:55:04;;;;;;;7.60;5.40;;;13.60;99.40;;;;;;5021064;28;20491;-77
2023/08/02 01:57:31;;;;;;;10.07;5.65;;;13.60;99.20;;;;;;5039425;28;20505;-78
2023/08/02 01:59:57;;;;;;;6.00;5.40;;;13.60;99.30;;;;;;5040465;28;20268;-79
2023/08/02 02:02:26;;;;;;;5.90;5.30;;;13.50;99.30;;;;;;5020121;28;20477;-79
2023/08/02 02:04:53;;;;;;;5.97;5.25;;;13.60;99.30;;;;;;5047373;28;20651;-80
2023/08/02 02:07:20;;;;;;;8.50;5.50;;;13.60;99.10;;;;;;5031968;28;20204;-80
2023/08/02 02:09:47;;;;;;;7.25;6.13;;;13.60;99.10;;;;;;5017517;28;20446;-81
2023/08/02 02:12:15;;;;;;;6.88;5.57;;;13.50;99.20;;;;;;5022751;28;20227;-77
2023/08/02 02:14:42;;;;;;;9.65;6.07;;;13.50;99.40;;;;;;5041831;28;20299;-77
2023/08/02 02:17:09;;;;;;;11.07;5.65;;;13.50;99.40;;;;;;5035957;28;20512;-77
2023/08/02 02:19:36;;;;;;;8.43;5.88;;;13.50;99.10;;;;;;5018041;28;20280;-79
2023/08/02 02:22:04;;;;;;;9.55;5.80;;;13.50;99.30;;;;;;5047149;28;20214;-76
2023/08/02 02:24:32;;;;;;;9.75;5.88;;;13.50;99.10;;;;;;5040399;28;20251;-78
2023/08/02 02:26:58;;;;;;;6.30;5.63;;;13.40;99.40;;;;;;5041254;28;20280;-80
2023/08/02 02:29:26;;;;;;;13.48;6.47;;;13.40;99.50;;;;;;5041803;28;20280;-78
2023/08/02 02:31:53;;;;;;;7.70;5.95;;;13.40;99.60;;;;;;5048711;28;20216;-76
2023/08/02 02:34:20;;;;;;;8.10;6.00;;;13.50;99.40;;;;;;5044893;28;20251;-78
2023/08/02 02:36:47;;;;;;;6.90;6.20;;;13.50;99.50;;;;;;5038744;28;20256;-79
2023/08/02 02:39:15;;;;;;;6.78;6.13;;;13.40;99.50;;;;;;5045938;28;20763;-76
2023/08/02 02:41:42;;;;;;;6.40;5.88;;;13.50;99.80;;;;;;5036875;28;20301;-77
2023/08/02 02:44:09;;;;;;;6.97;6.20;;;13.50;99.30;;;;;;5037106;28;20331;-78
2023/08/02 02:46:36;;;;;;;7.35;6.57;;;13.70;99.50;;;;;;5019160;28;20287;-78
2023/08/02 02:49:03;;;;;;;5.10;4.70;;;13.50;99.50;;;;;;5036581;28;20212;-80
2023/08/02 02:51:30;;;;;;;10.40;5.43;;;13.40;99.70;;;;;;5036687;28;20319;-77
2023/08/02 02:53:57;;;;;;;10.97;7.97;;;13.50;99.80;;;;;;5036222;28;20236;-77
2023/08/02 02:56:24;;;;;;;7.77;6.97;;;13.40;99.80;;;;;;5036789;28;20581;-77
2023/08/02 02:58:51;;;;;;;14.40;6.67;;;13.30;99.70;;;;;;5036586;28;20480;-77
2023/08/02 03:01:18;;;;;;;8.15;7.18;;;13.40;99.90;;;;;;5043315;28;20666;-78
2023/08/02 03:03:45;;;;;;;8.60;6.87;;;13.30;99.90;;;;;;5036588;28;20215;-79
2023/08/02 03:06:12;;;;;;;7.82;7.03;;;13.30;99.90;;;;;;5035856;28;20786;-77
2023/08/02 03:08:40;;;;;;;8.55;7.35;;;13.30;99.90;;;;;;5040971;28;20239;-77
2023/08/02 03:11:06;;;;;;;11.55;6.90;;;13.30;99.90;;;;;;5036093;28;20279;-76
2023/08/02 03:13:33;;;;;;;7.63;6.90;;;13.20;99.90;;;;;;5036076;28;20204;-77
2023/08/02 03:16:00;;;;;;;9.32;7.10;;;13.30;99.90;;;;;;5036049;28;20548;-78
2023/08/02 03:18:27;;;;;;;10.00;8.32;;;13.30;99.90;;;;;;5036443;28;20370;-78
2023/08/02 03:20:54;;;;;;;9.43;8.40;;;13.30;99.90;;;;;;5037327;28;20406;-78
2023/08/02 03:23:21;;;;;;;8.20;7.43;;;13.30;99.90;;;;;;5031694;28;20215;-78
2023/08/02 03:25:48;;;;;;;7.57;6.78;;;13.30;99.90;;;;;;5021551;28;20271;-76
2023/08/02 03:28:15;;;;;;;8.52;7.72;;;13.30;99.90;;;;;;5030244;28;20204;-79
2023/08/02 03:30:42;;;;;;;6.70;5.60;;;13.30;99.90;;;;;;5035752;28;20279;-77
2023/08/02 03:33:10;;;;;;;9.13;7.03;;;13.30;99.90;;;;;;5035894;28;20496;-78
2023/08/02 03:35:36;;;;;;;12.67;7.77;;;13.30;99.90;;;;;;5035268;28;20502;-77
2023/08/02 03:38:04;;;;;;;10.47;7.57;;;13.30;99.90;;;;;;5034659;28;20521;-78
2023/08/02 03:40:32;;;;;;;13.60;7.57;;;13.40;99.90;;;;;;5035048;28;20513;-80
2023/08/02 03:42:59;;;;;;;10.90;8.33;;;13.40;99.90;;;;;;5033156;28;20517;-78
2023/08/02 03:45:26;;;;;;;6.47;5.47;;;13.40;99.90;;;;;;5035513;28;20433;-79
2023/08/02 03:47:53;;;;;;;8.70;5.87;;;13.40;99.80;;;;;;5036145;28;20442;-79
2023/08/02 03:50:20;;;;;;;19.92;8.13;;;13.50;99.80;;;;;;5035928;28;20446;-79
2023/08/02 03:52:49;;;;;;;8.43;7.15;;;13.60;99.90;;;;;;5035423;28;20313;-77
2023/08/02 03:55:16;;;;;;;10.15;7.70;;;13.80;99.80;;;;;;5035598;28;20232;-78
2023/08/02 03:57:43;;;;;;;9.65;8.18;;;13.90;99.70;;;;;;5034071;28;20303;-79
2023/08/02 04:00:10;;;;;;;9.40;6.55;;;13.90;99.50;;;;;;5035029;28;20535;-77
2023/08/02 04:02:37;;;;;;;10.80;7.63;;;14.00;99.40;;;;;;5034763;28;20291;-77
2023/08/02 04:05:04;;;;;;;11.73;6.80;;;14.10;99.30;;;;;;5032597;28;20572;-78
2023/08/02 04:07:31;;;;;;;8.63;5.40;;;14.20;99.10;;;;;;5034267;28;20442;-76
2023/08/02 04:09:58;;;;;;;9.70;6.80;;;14.20;98.70;;;;;;5034479;28;20513;-77
2023/08/02 04:12:25;;;;;;;7.30;6.60;;;14.50;97.70;;;;;;5034656;28;20486;-76
2023/08/02 04:14:54;;;;;;;7.13;6.43;;;14.60;98.10;;;;;;5034556;28;20552;-76
2023/08/02 04:17:21;;;;;;;13.77;6.60;;;14.60;97.90;;;;;;5029450;28;20540;-78
2023/08/02 04:19:48;;;;;;;13.10;7.20;;;14.70;97.70;;;;;;5034557;28;20521;-77
2023/08/02 04:22:15;;;;;;;8.50;6.43;;;14.90;97.10;;;;;;5035828;28;20470;-78
2023/08/02 04:24:42;;;;;;;6.00;5.40;;;15.00;96.70;;;;;;5016238;28;20918;-79
2023/08/02 04:27:09;;;;;;;15.97;7.07;;;15.20;96.90;;;;;;5036154;28;20470;-79
2023/08/02 04:29:36;;;;;;;6.97;5.93;;;15.30;96.60;;;;;;5035439;28;20453;-79
2023/08/02 04:32:04;;;;;;;6.33;5.43;;;15.40;95.70;;;;;;5036377;28;21030;-77
2023/08/02 04:34:31;;;;;;;7.63;5.70;;;15.70;95.80;;;;;;5036634;28;20446;-76
2023/08/02 04:37:00;;;;;;;5.77;3.80;;;15.70;95.20;;;;;;5036548;28;20477;-77
2023/08/02 04:39:27;;;;;;;9.63;4.37;;;15.80;94.90;;;;;;5032995;28;20452;-78
2023/08/02 04:41:54;;;;;;;12.63;5.70;;;15.80;94.50;;;;;;5039633;28;20501;-78
2023/08/02 04:44:21;;;;;;;6.90;4.50;;;15.80;94.60;;;;;;5039802;28;20432;-79
2023/08/02 04:46:48;;;;;;;8.00;4.63;;;15.90;94.70;;;;;;5021407;28;20516;-78
2023/08/02 04:49:18;;;;;;;7.57;3.93;;;16.10;93.90;;;;;;5028375;28;20423;-80
2023/08/02 04:51:45;;;;;;;7.40;3.70;;;16.30;94.00;;;;;;5038888;28;20514;-78
2023/08/02 04:54:13;;;;;;;8.93;4.90;;;16.60;93.40;;;;;;5038717;28;20460;-76
2023/08/02 04:56:40;;;;;;;7.60;4.63;;;16.90;92.90;;;;;;5039171;28;20444;-76
2023/08/02 04:59:10;;;;;;;5.47;4.47;;;17.20;91.60;;;;;;5014920;28;20445;-78
2023/08/02 05:01:37;;;;;;;10.57;7.70;;;17.30;91.90;;;;;;5041395;28;20480;-81
2023/08/02 05:04:07;;;;;;;6.80;3.73;;;17.30;91.50;;;;;;5041566;28;20446;-80
2023/08/02 05:06:36;;;;;;;6.70;3.93;;;17.50;91.50;;;;;;5040162;28;20442;-82
2023/08/02 05:09:06;;;;;;;4.40;3.33;;;17.50;91.40;;;;;;5040649;28;20438;-82
2023/08/02 05:11:33;;;;;;;5.03;3.90;;;17.60;91.20;;;;;;5042267;28;20433;-82
2023/08/02 05:14:01;;;;;;;5.03;3.70;;;17.60;91.00;;;;;;5045842;28;20408;-79
2023/08/02 05:16:28;;;;;;;6.23;3.53;;;17.80;90.90;;;;;;5023325;28;20500;-79
2023/08/02 05:18:55;;;;;;;3.40;3.10;;;17.80;90.60;;;;;;5043666;28;20441;-77
2023/08/02 05:21:25;;;;;;;8.90;8.20;;;18.00;90.40;;;;;;5037472;28;20434;-78
2023/08/02 05:23:52;;;;;;;7.07;6.47;;;18.10;90.20;;;;;;5036874;28;20492;-79
2023/08/02 05:26:20;;;;;;;6.67;3.80;;;18.10;90.20;;;;;;5042705;28;20774;-81
2023/08/02 05:28:47;;;;;;;8.53;4.47;;;18.30;90.00;;;;;;5025701;28;20725;-79
2023/08/02 05:31:14;;;;;;;5.20;4.00;;;18.40;89.30;;;;;;5042823;28;20690;-79
2023/08/02 05:33:46;;;;;;;5.20;3.70;;;18.50;87.70;;;;;;5040039;28;20448;-78
2023/08/02 05:36:14;;;;;;;5.90;4.00;;;18.70;88.10;;;;;;5038254;28;20516;-85
2023/08/02 05:38:42;;;;;;;3.73;3.33;;;18.80;87.50;;;;;;5043516;28;20445;-80
2023/08/02 05:41:09;;;;;;;4.67;3.87;;;18.90;86.20;;;;;;5041199;28;20443;-82
2023/08/02 05:43:41;;;;;;;6.43;3.43;;;18.90;85.20;;;;;;5043810;28;20504;-81
2023/08/02 05:46:15;;;;;;;4.57;3.50;;;18.90;85.70;;;;;;5044600;28;20868;-81
2023/08/02 05:48:43;;;;;;;9.67;4.00;;;18.90;85.10;;;;;;5043080;28;20473;-81
2023/08/02 05:51:13;;;;;;;5.53;4.27;;;19.10;85.60;;;;;;5043062;28;20697;-80
2023/08/02 05:53:40;;;;;;;4.50;4.10;;;19.30;84.50;;;;;;5043889;28;20439;-81
2023/08/02 05:56:07;;;;;;;3.63;3.33;;;19.40;83.70;;;;;;5040765;28;20513;-81
2023/08/02 05:58:35;;;;;;;8.00;3.43;;;19.60;83.10;;;;;;5039494;28;20497;-83
2023/08/02 06:01:02;;;;;;;3.90;3.50;;;19.70;81.40;;;;;;5048596;28;20775;-81
2023/08/02 06:03:33;;;;;;;4.20;3.60;;;19.80;81.80;;;;;;5022582;28;20570;-81
2023/08/02 06:06:04;;;;;;;4.40;3.20;;;19.90;80.00;;;;;;5041964;28;20491;-82
2023/08/02 06:08:31;;;;;;;3.40;3.10;;;20.10;80.60;;;;;;5042208;28;20464;-81
2023/08/02 06:11:01;;;;;;;4.50;3.20;;;20.20;79.20;;;;;;5024966;28;20505;-81
2023/08/02 06:13:29;;;;;;;10.60;3.30;;;20.20;78.30;;;;;;5025085;28;20752;-80
2023/08/02 06:15:56;;;;;;;3.17;2.97;;;20.40;78.80;;;;;;5035722;28;20548;-80
2023/08/02 06:18:24;;;;;;;4.43;3.27;;;20.70;78.50;;;;;;5042110;28;20515;-82
2023/08/02 06:20:51;;;;;;;5.70;3.40;;;20.80;77.40;;;;;;5044995;28;20449;-81
2023/08/02 06:23:20;;;;;;;5.13;3.73;;;21.00;75.10;;;;;;5042652;28;20438;-79
2023/08/02 06:25:46;;;;;;;3.50;3.00;;;21.10;75.40;;;;;;5024870;28;20431;-81
2023/08/02 06:28:14;;;;;;;8.60;3.30;;;21.10;74.70;;;;;;5042190;28;20452;-81
2023/08/02 06:30:42;;;;;;;5.43;2.90;;;21.30;73.30;;;;;;5042017;28;20424;-80
2023/08/02 06:33:12;;;;;;;4.77;3.37;;;21.60;71.70;;;;;;5044058;28;20424;-82
2023/08/02 06:35:42;;;;;;;4.13;3.30;;;21.70;70.90;;;;;;5045953;28;20434;-80
2023/08/02 06:38:09;;;;;;;3.50;3.20;;;21.90;71.00;;;;;;5020837;28;20470;-81
2023/08/02 06:40:36;;;;;;;3.33;3.00;;;22.10;68.90;;;;;;5043387;28;20638;-81
2023/08/02 06:43:03;;;;;;;3.37;3.17;;;22.20;69.60;;;;;;5043920;28;20496;-81
2023/08/02 06:45:31;;;;;;;4.83;2.63;;;22.60;66.60;;;;;;5047629;28;20601;-79
2023/08/02 06:47:58;;;;;;;3.73;3.40;;;22.70;65.30;;;;;;5044858;28;20412;-81
2023/08/02 06:50:25;;;;;;;3.73;3.27;;;23.20;64.10;;;;;;5043882;28;20416;-80
2023/08/02 06:52:52;;;;;;;11.20;3.67;;;23.60;63.20;;;;;;5048620;28;20420;-82
2023/08/02 06:55:22;;;;;;;7.57;5.00;;;24.00;60.80;;;;;;5043790;28;20421;-82
2023/08/02 06:57:50;;;;;;;6.87;3.00;;;24.20;59.10;;;;;;5043667;28;20529;-82
2023/08/02 07:00:18;;;;;;;5.90;3.17;;;24.50;58.50;;;;;;5039991;28;20770;-79
2023/08/02 07:02:45;;;;;;;7.50;3.00;;;24.20;59.50;;;;;;5025727;28;20731;-82
2023/08/02 07:05:12;;;;;;;6.47;2.63;;;24.60;58.00;;;;;;5040204;28;20420;-79
2023/08/02 07:07:39;;;;;;;4.00;2.83;;;24.50;58.50;;;;;;5038939;28;20739;-82
2023/08/02 07:10:06;;;;;;;3.93;2.73;;;24.50;58.30;;;;;;5024972;28;20427;-81
2023/08/02 07:12:33;;;;;;;3.77;3.27;;;24.80;57.20;;;;;;5031993;28;20455;-81
2023/08/02 07:15:04;;;;;;;3.57;2.80;;;25.20;55.80;;;;;;5040282;28;20525;-83
2023/08/02 07:17:31;;;;;;;6.80;3.60;;;25.70;54.20;;;;;;5043001;28;20484;-82
2023/08/02 07:19:58;;;;;;;3.03;2.83;;;26.30;53.00;;;;;;5038852;28;21067;-79
2023/08/02 07:22:25;;;;;;;4.47;3.10;;;26.60;51.60;;;;;;5039145;28;20420;-81
2023/08/02 07:24:52;;;;;;;4.20;3.10;;;27.00;49.50;;;;;;5041707;28;20427;-82
2023/08/02 07:27:19;;;;;;;4.03;3.63;;;27.50;51.10;;;;;;5042473;28;20437;-79
2023/08/02 07:29:51;;;;;;;3.43;3.10;;;27.30;48.00;;;;;;5045399;28;20553;-85
2023/08/02 07:32:19;;;;;;;3.37;3.07;;;27.00;48.80;;;;;;5033608;28;20440;-84
2023/08/02 07:34:46;;;;;;;7.03;3.30;;;27.40;50.40;;;;;;5034594;28;20826;-81
2023/08/02 07:37:13;;;;;;;3.67;3.17;;;28.20;48.80;;;;;;5033282;28;21205;-82
2023/08/02 07:39:40;;;;;;;5.10;3.17;;;28.90;47.00;;;;;;5020624;28;20533;-80
2023/08/02 07:42:10;;;;;;;4.90;3.27;;;29.40;45.00;;;;;;5020296;28;20435;-81
2023/08/02 07:44:39;;;;;;;3.80;3.50;;;29.20;44.30;;;;;;5016486;28;20449;-81
2023/08/02 07:47:09;;;;;;;5.30;3.90;;;28.80;45.70;;;;;;5023818;28;20505;-83
2023/08/02 07:49:38;;;;;;;7.53;2.97;;;29.10;45.00;;;;;;5037842;28;20489;-80
2023/08/02 07:52:06;;;;;;;5.23;4.07;;;28.70;45.40;;;;;;5034690;28;20779;-84
2023/08/02 07:54:35;;;;;;;3.27;2.77;;;27.80;47.40;;;;;;5034927;28;20484;-84
2023/08/02 07:57:23;;;;;;;6.23;3.30;;;28.50;46.00;;;;;;5016729;28;20523;-83
2023/08/02 07:59:50;;;;;;;3.67;3.23;;;29.30;43.80;;;;;;5036687;28;20622;-81
2023/08/02 08:02:18;;;;;;;3.47;3.17;;;29.90;43.10;;;;;;5033951;28;20778;-80
2023/08/02 08:04:46;;;;;;;3.97;3.50;;;30.10;42.50;;;;;;5033172;28;20443;-82
2023/08/02 08:07:13;;;;;;;5.80;4.20;;;29.80;43.00;;;;;;5017802;28;20445;-84
2023/08/02 08:09:41;;;;;;;5.13;3.80;;;28.10;46.20;;;;;;5037655;28;20442;-81
2023/08/02 08:12:08;;;;;;;3.50;3.20;;;27.40;47.20;;;;;;5036664;28;20448;-82
2023/08/02 08:14:36;;;;;;;5.10;3.53;;;27.90;46.30;;;;;;5032820;28;20484;-83
2023/08/02 08:17:03;;;;;;;3.53;2.90;;;29.00;46.10;;;;;;5027637;28;20666;-83
2023/08/02 08:19:33;;;;;;;4.57;3.00;;;30.20;41.80;;;;;;5030632;28;20453;-78
2023/08/02 08:22:00;;;;;;;4.37;3.23;;;29.90;42.80;;;;;;5031879;28;20855;-83
2023/08/02 08:24:27;;;;;;;3.27;2.90;;;28.90;43.30;;;;;;5041235;28;20438;-83
2023/08/02 08:26:55;;;;;;;4.93;2.87;;;29.10;43.40;;;;;;5054281;28;20434;-80
2023/08/02 08:29:22;;;;;;;4.13;3.83;;;28.40;44.10;;;;;;5045201;28;20524;-82
2023/08/02 08:31:49;;;;;;;3.73;3.37;;;27.40;46.60;;;;;;5038685;28;20501;-81
2023/08/02 08:34:16;;;;;;;3.00;2.80;;;26.70;49.00;;;;;;5038303;28;20441;-82
2023/08/02 08:36:45;;;;;;;3.60;3.30;;;26.80;48.90;;;;;;5027939;28;20513;-81
2023/08/02 08:39:12;;;;;;;5.50;4.00;;;26.30;48.90;;;;;;5039309;28;20496;-85
2023/08/02 08:41:39;;;;;;;3.40;3.10;;;26.10;51.90;;;;;;5020699;28;20445;-83
2023/08/02 08:44:07;;;;;;;3.20;3.00;;;26.30;51.80;;;;;;5035573;28;20476;-82
2023/08/02 08:46:34;;;;;;;4.93;3.00;;;26.50;49.90;;;;;;5021368;28;20434;-83
2023/08/02 08:49:02;;;;;;;3.60;3.20;;;28.40;46.80;;;;;;5034524;28;20501;-84
2023/08/02 08:51:33;;;;;;;3.77;2.73;;;29.00;46.30;;;;;;5033756;28;20438;-82
2023/08/02 08:54:08;;;;;;;6.37;3.30;;;28.80;44.90;;;;;;5032006;28;20481;-83
2023/08/02 08:56:40;;;;;;;3.10;2.80;;;28.30;44.70;;;;;;5036233;28;20552;-83
2023/08/02 08:59:08;;;;;;;3.77;3.47;;;28.30;44.90;;;;;;5038291;28;20435;-84
2023/08/02 09:01:39;;;;;;;3.23;2.93;;;27.60;47.20;;;;;;5036097;28;20653;-81
2023/08/02 09:04:07;;;;;;;3.70;2.80;;;27.10;47.00;;;;;;5039773;28;20433;-80
2023/08/02 09:06:36;;;;;;;3.43;2.90;;;27.00;48.60;;;;;;5037207;28;20428;-83
2023/08/02 09:09:03;;;;;;;4.37;3.97;;;26.50;47.70;;;;;;5030601;28;20473;-82
2023/08/02 09:11:30;;;;;;;3.27;2.17;;;26.50;47.20;;;;;;5035997;28;20441;-84
2023/08/02 09:14:16;;;;;;;6.57;3.13;;;26.00;48.50;;;;;;5037782;28;20450;-84
2023/08/02 09:17:00;;;;;;;3.83;2.87;;;26.70;48.70;;;;;;5034012;28;20564;-82
2023/08/02 09:19:30;;;;;;;3.53;3.23;;;28.50;47.10;;;;;;5038200;28;20429;-85
2023/08/02 09:22:14;;;;;;;3.57;3.37;;;28.10;43.30;;;;;;5033681;28;20442;-82
2023/08/02 09:24:44;;;;;;;2.77;2.57;;;28.20;44.40;;;;;;5037488;28;20638;-85
2023/08/02 09:27:19;;;;;;;3.40;2.60;;;28.60;45.70;;;;;;5037429;28;20941;-83
2023/08/02 09:29:51;;;;;;;4.60;3.13;;;29.10;43.90;;;;;;5038416;28;20476;-86
2023/08/02 09:32:20;;;;;;;2.50;2.30;;;29.40;45.10;;;;;;5042286;28;20452;-81
2023/08/02 09:34:50;;;;;;;3.20;3.00;;;29.10;42.20;;;;;;5016353;28;20434;-80
2023/08/02 09:37:29;;;;;;;3.30;2.60;;;29.40;42.70;;;;;;5039711;28;20543;-80
2023/08/02 09:39:59;;;;;;;3.50;2.67;;;29.50;43.90;;;;;;5037056;28;20506;-82
2023/08/02 09:42:27;;;;;;;4.27;3.37;;;29.00;41.10;;;;;;5036958;28;20464;-81
2023/08/02 09:44:56;;;;;;;4.47;2.60;;;28.60;43.50;;;;;;5038433;28;20437;-81
2023/08/02 09:47:26;;;;;;;4.33;2.80;;;28.30;44.40;;;;;;5014833;28;20413;-83
2023/08/02 09:50:07;;;;;;;2.30;2.10;;;27.60;43.70;;;;;;5013028;28;20477;-83
2023/08/02 09:52:38;;;;;;;3.33;3.03;;;27.30;45.50;;;;;;5019833;28;20437;-81
2023/08/02 09:55:07;;;;;;;6.67;3.23;;;27.40;46.50;;;;;;5037699;28;20445;-84
2023/08/02 09:57:35;;;;;;;3.30;2.53;;;27.40;46.20;;;;;;5037171;28;20489;-79
2023/08/02 10:00:07;;;;;;;2.83;2.63;;;27.20;45.00;;;;;;5042208;28;20445;-82
2023/08/02 10:02:36;;;;;;;3.53;2.33;;;27.10;48.30;;;;;;5043241;28;20430;-84
2023/08/02 10:05:12;;;;;;;4.43;2.60;;;27.50;46.90;;;;;;5025125;28;20766;-83
2023/08/02 10:07:47;;;;;;;5.73;2.50;;;27.50;43.30;;;;;;5042565;28;20440;-81
2023/08/02 10:10:19;;;;;;;2.80;2.37;;;27.10;46.00;;;;;;5043398;28;20451;-84
2023/08/02 10:12:56;;;;;;;2.57;2.37;;;27.00;48.40;;;;;;5041872;28;20419;-82
2023/08/02 10:15:25;;;;;;;3.50;2.60;;;27.20;45.70;;;;;;5044361;28;20451;-83
2023/08/02 10:17:55;;;;;;;3.20;2.40;;;27.50;45.60;;;;;;5039483;28;20481;-82
2023/08/02 10:20:25;;;;;;;3.73;2.20;;;27.70;45.70;;;;;;5020922;28;20432;-80
2023/08/02 10:22:54;;;;;;;3.20;2.90;;;28.00;45.30;;;;;;5039235;28;20471;-81
2023/08/02 10:25:23;;;;;;;4.30;2.37;;;28.20;44.70;;;;;;5024702;28;20509;-83
2023/08/02 10:27:50;;;;;;;3.80;2.47;;;27.90;43.10;;;;;;5023024;28;21030;-81
2023/08/02 10:30:17;;;;;;;2.60;2.40;;;27.70;45.80;;;;;;5038859;28;20473;-84
2023/08/02 10:33:23;;;;;;;4.27;2.67;;;27.40;45.40;;;;;;5039389;28;20488;-83
2023/08/02 10:35:54;;;;;;;3.97;2.90;;;27.30;45.40;;;;;;5019759;28;20504;-81
2023/08/02 10:38:27;;;;;;;2.93;2.67;;;27.10;46.80;;;;;;5039179;28;20848;-85
2023/08/02 10:41:08;;;;;;;5.17;2.70;;;26.80;46.60;;;;;;5020686;28;20456;-83
2023/08/02 10:43:54;;;;;;;3.30;2.23;;;26.70;47.60;;;;;;5037961;28;20425;-83
2023/08/02 10:46:28;;;;;;;3.83;2.17;;;26.80;49.10;;;;;;5059271;28;20696;-81
2023/08/02 10:49:14;;;;;;;2.57;2.37;;;27.20;46.90;;;;;;5045079;28;20447;-81
2023/08/02 10:51:42;;;;;;;2.53;2.20;;;27.20;47.20;;;;;;5040239;28;20788;-82
2023/08/02 10:54:22;;;;;;;4.77;4.30;;;26.70;45.20;;;;;;5041765;28;20428;-83
2023/08/02 10:56:57;;;;;;;2.67;2.47;;;27.00;45.90;;;;;;5025558;28;20450;-80
2023/08/02 10:59:27;;;;;;;2.80;2.27;;;27.20;45.10;;;;;;5038881;28;20864;-83
2023/08/02 11:01:59;;;;;;;2.00;1.90;;;27.30;45.50;;;;;;5041111;28;20473;-83
2023/08/02 11:04:29;;;;;;;3.30;2.63;;;27.70;44.70;;;;;;5021398;28;20509;-81
2023/08/02 11:07:09;;;;;;;7.00;3.30;;;27.20;46.10;;;;;;5044308;28;21084;-84
2023/08/02 11:09:38;;;;;;;2.70;2.50;;;27.60;46.60;;;;;;5038413;28;20634;-81
2023/08/02 11:12:11;;;;;;;2.90;2.67;;;27.90;45.40;;;;;;5039433;28;20457;-82
2023/08/02 11:14:43;;;;;;;2.30;2.20;;;27.50;47.00;;;;;;5038644;28;20917;-82
2023/08/02 11:17:11;;;;;;;2.50;2.10;;;27.40;45.10;;;;;;5038256;28;20844;-80
2023/08/02 11:19:48;;;;;;;2.63;2.43;;;27.30;47.90;;;;;;5038283;28;20441;-81
2023/08/02 11:22:18;;;;;;;3.07;2.10;;;27.30;46.50;;;;;;5036815;28;20431;-82
2023/08/02 11:24:50;;;;;;;2.77;2.33;;;27.50;46.00;;;;;;5040921;28;20469;-81
2023/08/02 11:27:19;;;;;;;3.27;2.10;;;27.80;44.20;;;;;;5040867;28;20827;-81
2023/08/02 11:30:05;;;;;;;2.23;2.13;;;27.60;45.10;;;;;;5033418;28;20513;-84
2023/08/02 11:32:33;;;;;;;3.73;2.20;;;27.90;45.80;;;;;;5035720;28;20496;-81
2023/08/02 11:35:01;;;;;;;3.50;2.03;;;28.00;47.30;;;;;;5037263;28;20866;-82
2023/08/02 11:37:28;;;;;;;5.73;2.47;;;27.80;44.60;;;;;;5038745;28;20515;-81
2023/08/02 11:39:57;;;;;;;3.13;2.33;;;27.90;45.00;;;;;;5036889;28;20505;-82
2023/08/02 11:42:27;;;;;;;2.80;2.33;;;27.90;46.30;;;;;;5037734;28;20456;-81
2023/08/02 11:44:54;;;;;;;3.20;2.37;;;27.50;44.90;;;;;;5038295;28;20548;-83
2023/08/02 11:47:35;;;;;;;5.20;2.70;;;27.20;46.00;;;;;;5036245;28;20782;-82
2023/08/02 11:50:03;;;;;;;4.07;2.70;;;27.00;45.70;;;;;;5036027;28;20438;-82
2023/08/02 11:52:32;;;;;;;2.77;2.37;;;27.10;46.60;;;;;;5048624;28;20509;-83
2023/08/02 11:55:00;;;;;;;2.30;2.10;;;27.10;46.00;;;;;;5043868;28;20478;-84
2023/08/02 11:57:27;;;;;;;3.20;2.20;;;27.30;46.80;;;;;;5043705;28;20482;-81
2023/08/02 11:59:56;;;;;;;4.80;2.67;;;27.00;45.10;;;;;;5042616;28;20472;-82
2023/08/02 12:02:29;;;;;;;2.37;2.17;;;26.40;47.10;;;;;;5042167;28;20483;-82
2023/08/02 12:04:57;;;;;;;3.37;2.33;;;26.30;47.60;;;;;;5032585;28;20509;-81
2023/08/02 12:07:28;;;;;;;2.90;2.50;;;26.70;45.90;;;;;;5037982;28;20701;-82
2023/08/02 12:09:56;;;;;;;6.27;3.17;;;27.20;45.90;;;;;;5037891;28;20536;-82
2023/08/02 12:12:29;;;;;;;3.10;2.80;;;27.50;45.00;;;;;;5038233;28;20484;-80
2023/08/02 12:15:08;;;;;;;4.57;2.40;;;28.00;44.40;;;;;;5020664;28;20509;-81
2023/08/02 12:17:35;;;;;;;4.60;2.80;;;27.90;42.70;;;;;;5037535;28;20505;-81
2023/08/02 12:20:03;;;;;;;2.73;2.50;;;28.00;41.90;;;;;;5036905;28;20438;-83
2023/08/02 12:22:30;;;;;;;4.00;2.70;;;28.60;42.80;;;;;;5033209;28;20517;-83
2023/08/02 12:25:05;;;;;;;5.67;2.80;;;28.70;41.20;;;;;;5033351;28;20445;-81
2023/08/02 12:27:32;;;;;;;4.17;2.90;;;28.20;43.10;;;;;;5022149;28;20473;-78
2023/08/02 12:30:11;;;;;;;3.30;2.33;;;28.10;42.70;;;;;;5038867;28;20501;-82
2023/08/02 12:32:40;;;;;;;2.07;1.87;;;28.10;42.50;;;;;;5038531;28;20412;-79
2023/08/02 12:35:11;;;;;;;3.73;2.30;;;28.40;41.20;;;;;;5043029;28;20493;-81
2023/08/02 12:37:40;;;;;;;3.00;1.93;;;28.30;41.20;;;;;;5045724;28;20535;-79
2023/08/02 12:40:08;;;;;;;2.20;2.00;;;28.00;41.30;;;;;;5031617;28;20454;-83
2023/08/02 12:42:35;;;;;;;4.73;2.23;;;28.00;43.30;;;;;;5056089;28;20405;-81
2023/08/02 12:45:14;;;;;;;3.20;2.27;;;28.00;42.80;;;;;;5043383;28;20434;-83
2023/08/02 12:47:44;;;;;;;2.90;2.60;;;27.80;42.30;;;;;;5054934;28;20443;-81
2023/08/02 12:50:11;;;;;;;2.33;1.90;;;27.50;43.00;;;;;;5038429;28;20477;-80
2023/08/02 12:52:38;;;;;;;3.23;2.40;;;27.70;41.80;;;;;;5038389;28;20492;-83
2023/08/02 12:55:06;;;;;;;2.50;2.30;;;27.50;41.50;;;;;;5036772;28;20756;-80